Flight Track Log - Related Links

Times and Time Zones

All times are in EDT time to prevent confusion due to time zone crossing. See the N4855T flight status page for this flight to view local times or setup timezone preferences in your user account.

Time Position Orientation Groundspeed Altitude Reporting Facility
EDT Latitude Longitude Course Direction KTS MPH feet Rate Location/Type
Tue 02:28:00 AM 32.9352 -97.0319 North  Level Estimated
Tue 02:29:00 AM 32.9748 -97.0257 North  Level Estimated
Tue 02:30:00 AM 33.0145 -97.0194 North  Level Estimated
Tue 02:31:00 AM 33.0549 -97.0117 North  Level FlightAware Approximate
Tue 02:32:00 AM 33.0953 -97.0041 North  Level FlightAware Approximate
Tue 02:33:00 AM 33.1358 -96.9976 North  Level Estimated
Tue 02:34:00 AM 33.1762 -96.9894 10° North  Level FlightAware Approximate
Tue 02:35:00 AM 33.2165 -96.9812 10° North  Level FlightAware Approximate
Tue 02:36:00 AM 33.2568 -96.9729 10° North  Level FlightAware Approximate
Tue 02:37:00 AM 33.2971 -96.9647 10° North  Level FlightAware Approximate
Tue 02:38:00 AM 33.3375 -96.9564 10° North  Level FlightAware Approximate
Tue 02:39:00 AM 33.3778 -96.9482 10° North  Level FlightAware Approximate
Tue 02:40:00 AM 33.4181 -96.9399 10° North  Level FlightAware Approximate
Tue 02:41:00 AM 33.4504 -96.9348 North  Level Estimated
Tue 02:42:00 AM 33.4827 -96.9314 North  Level FlightAware Approximate
Tue 02:43:00 AM 33.5151 -96.9281 North  Level FlightAware Approximate
Tue 02:44:00 AM 33.5475 -96.9248 North  Level FlightAware Approximate
Tue 02:45:00 AM 33.5799 -96.9215 North  Level FlightAware Approximate
Tue 02:46:00 AM 33.6123 -96.9182 North  Level FlightAware Approximate
Tue 02:47:00 AM 33.6447 -96.9149 North  Level FlightAware Approximate
Tue 02:48:00 AM 33.6771 -96.9115 North  Level FlightAware Approximate
Tue 02:49:00 AM 33.7095 -96.9082 North  Level FlightAware Approximate
Tue 02:50:00 AM 33.7419 -96.9049 North  Level FlightAware Approximate
Tue 02:51:00 AM 33.7738 -96.9016 North  Level FlightAware Approximate
Tue 02:52:00 AM 33.8056 -96.8983 North  Level FlightAware Approximate
Tue 02:53:00 AM 33.8375 -96.8950 North  Level FlightAware Approximate
Tue 02:54:00 AM 33.8694 -96.8917 North  Level FlightAware Approximate
Tue 02:55:00 AM 33.9013 -96.8885 North  Level FlightAware Approximate
Tue 02:56:00 AM 33.9332 -96.8852 North  Level FlightAware Approximate
Tue 02:57:00 AM 33.9651 -96.8819 North  Level FlightAware Approximate
Tue 02:58:00 AM 33.9970 -96.8786 North  Level FlightAware Approximate
Tue 02:59:00 AM 34.0289 -96.8753 North  Level FlightAware Approximate
Tue 03:00:00 AM 34.0608 -96.8720 North  Level FlightAware Approximate
Tue 03:01:00 AM 34.0927 -96.8687 North  Level FlightAware Approximate
Tue 03:02:00 AM 34.0543 -96.8830 197° South  Level Estimated
Tue 03:03:00 AM 34.0160 -96.8973 197° South  Level Estimated
Tue 03:04:00 AM 33.9776 -96.9117 197° South  Level Estimated
Tue 03:05:00 AM 33.9180 -96.9338 197° South  Level Estimated
Tue 03:06:00 AM 33.8584 -96.9560 197° South  Level Estimated
Tue 03:07:00 AM 33.7988 -96.9781 197° South  Level Estimated
Tue 03:08:00 AM 33.7392 -97.0002 197° South  Level Estimated
Tue 03:09:00 AM 33.6796 -97.0223 197° South  Level Estimated
Tue 03:10:00 AM 33.6200 -97.0443 197° South  Level Estimated
Tue 03:11:00 AM 33.5605 -97.0663 197° South  Level Estimated
Tue 03:12:00 AM 33.5008 -97.0883 197° South  Level Estimated
Tue 03:12:34 AM 32.5667 -97.2500 197° South 154 177 6,400  Level Dallas / Fort Worth TRACON
Tue 03:13:00 AM 33.4412 -97.1102 197° South  Level Estimated
Tue 03:13:34 AM 32.6167 -97.2333 16° North 165 190 6,000  Level Dallas / Fort Worth TRACON
Tue 03:14:00 AM 33.3816 -97.1321 197° South  Level Estimated
Tue 03:14:30 AM 32.6578 -97.2383 354° North 165 190 5,200  Level Fort Worth Center
Tue 03:15:00 AM 33.3220 -97.1540 197° South  Level Estimated
Tue 03:15:30 AM 32.7100 -97.2356 North 182 209 4,300  Level Fort Worth Center
Tue 03:16:00 AM 33.2624 -97.1759 197° South  Level Estimated
Tue 03:16:30 AM 32.7664 -97.2331 North 188 216 3,500  Level Fort Worth Center
Tue 03:17:00 AM 33.2028 -97.1977 197° South  Level Estimated
Tue 03:18:37 AM 32.8833 -97.2167 North 183 211 3,500  Level Dallas / Fort Worth TRACON
Tue 03:19:38 AM 32.9333 -97.2167 360° North 184 212 3,500 -149 Level Dallas / Fort Worth TRACON
Tue 03:20:38 AM 32.9833 -97.2167 360° North 192 221 3,200 -347 Descending Dallas / Fort Worth TRACON
Tue 03:21:39 AM 33.0333 -97.2167 360° North 201 231 2,800 -393 Descending Dallas / Fort Worth TRACON
Tue 03:23:00 AM 33.1169 -97.2047 North  Level FlightAware Approximate
Tue 03:30:00 AM 33.2000 -97.1833 16° North  Level FlightAware Approximate
Tue 03:31:00 AM 33.2021 -97.1980 16° North  Level Estimated
Tue 03:32:00 AM 33.2021 -97.1980 16° North  Level Estimated
Tue 03:33:00 AM 33.2021 -97.1980 16° North  Level Estimated
Tue 03:34:00 AM 33.2021 -97.1980 16° North  Level Estimated
Tue 03:35:00 AM 33.2021 -97.1980 16° North  Level Estimated
Tue 03:36:00 AM 33.2021 -97.1980 16° North  Level Estimated
Tue 03:37:00 AM 33.2021 -97.1980 16° North  Level Estimated
Tue 03:38:00 AM 33.2021 -97.1980 16° North  Level Estimated
Tue 03:39:00 AM 33.2021 -97.1980 16° North  Level Estimated
Tue 03:40:00 AM 33.2021 -97.1980 16° North  Level Estimated
Tue 03:41:00 AM 33.2021 -97.1980 16° North  Level Estimated
Tue 03:42:00 AM 33.2021 -97.1980 16° North  Level Estimated

Login

Don't have an account? Register now (free) for customized features, flight alerts, and more!